createdAt,value
2023-02-17T00:00:58.162Z,7.40
2023-02-17T00:03:25.251Z,7.40
2023-02-17T00:05:51.976Z,7.40
2023-02-17T00:08:18.788Z,7.50
2023-02-17T00:10:45.408Z,7.40
2023-02-17T00:13:11.953Z,7.40
2023-02-17T00:15:39.284Z,7.50
2023-02-17T00:18:05.946Z,7.50
2023-02-17T00:20:32.652Z,7.40
2023-02-17T00:22:59.204Z,7.40
2023-02-17T00:25:25.857Z,7.40
2023-02-17T00:27:52.581Z,7.40
2023-02-17T00:30:19.336Z,7.30
2023-02-17T00:32:45.918Z,7.30
2023-02-17T00:35:12.606Z,7.30
2023-02-17T00:37:40.257Z,7.30
2023-02-17T00:40:07.445Z,7.30
2023-02-17T00:42:33.949Z,7.30
2023-02-17T00:45:00.529Z,7.30
2023-02-17T00:47:27.101Z,7.30
2023-02-17T00:49:53.675Z,7.40
2023-02-17T00:52:20.245Z,7.30
2023-02-17T00:54:46.853Z,7.40
2023-02-17T00:57:13.498Z,7.40
2023-02-17T00:59:40.098Z,7.40
2023-02-17T01:02:06.823Z,7.40
2023-02-17T01:04:33.371Z,7.40
2023-02-17T01:06:59.903Z,7.40
2023-02-17T01:09:26.504Z,7.50
2023-02-17T01:11:53.132Z,7.50
2023-02-17T01:14:19.800Z,7.40
2023-02-17T01:16:49.293Z,7.40
2023-02-17T01:19:19.145Z,7.40
2023-02-17T01:21:45.846Z,7.40
2023-02-17T01:24:13.187Z,7.40
2023-02-17T01:26:40.313Z,7.40
2023-02-17T01:29:07.705Z,7.40
2023-02-17T01:31:34.838Z,7.40
2023-02-17T01:34:03.703Z,7.40
2023-02-17T01:36:30.412Z,7.40
2023-02-17T01:38:57.010Z,7.40
2023-02-17T01:41:28.684Z,7.40
2023-02-17T01:44:17.079Z,7.30
2023-02-17T01:46:46.095Z,7.30
2023-02-17T01:49:34.290Z,7.30
2023-02-17T01:52:20.775Z,7.30
2023-02-17T01:54:54.019Z,7.20
2023-02-17T01:57:23.969Z,7.20
2023-02-17T01:59:51.515Z,7.20
2023-02-17T02:02:18.648Z,7.20
2023-02-17T02:04:48.282Z,7.30
2023-02-17T02:07:20.587Z,7.30
2023-02-17T02:09:51.336Z,7.30
2023-02-17T02:12:22.336Z,7.30
2023-02-17T02:14:50.230Z,7.30
2023-02-17T02:17:52.945Z,7.40
2023-02-17T02:20:56.227Z,7.40
2023-02-17T02:23:31.686Z,7.40
2023-02-17T02:26:04.676Z,7.40
2023-02-17T02:29:08.574Z,7.50
2023-02-17T02:31:50.484Z,7.50
2023-02-17T02:34:22.958Z,7.60
2023-02-17T02:36:58.981Z,7.60
2023-02-17T02:39:32.603Z,7.60
2023-02-17T02:42:03.710Z,7.60
2023-02-17T02:44:30.552Z,7.70
2023-02-17T02:47:06.639Z,7.70
2023-02-17T02:49:36.377Z,7.70
2023-02-17T02:52:07.216Z,7.70
2023-02-17T02:54:57.458Z,7.70
2023-02-17T02:57:38.543Z,7.70
2023-02-17T03:00:31.051Z,7.70
2023-02-17T03:03:01.944Z,7.70
2023-02-17T03:05:34.270Z,7.70
2023-02-17T03:08:02.964Z,7.70
2023-02-17T03:10:30.085Z,7.70
2023-02-17T03:12:57.886Z,7.70
2023-02-17T03:15:32.051Z,7.80
2023-02-17T03:18:00.263Z,7.80
2023-02-17T03:20:29.918Z,7.80
2023-02-17T03:22:56.760Z,7.80
2023-02-17T03:25:23.381Z,7.90
2023-02-17T03:27:49.937Z,7.90
2023-02-17T03:30:16.755Z,8.00
2023-02-17T03:32:43.631Z,8.10
2023-02-17T03:35:10.717Z,8.10
2023-02-17T03:37:37.456Z,8.10
2023-02-17T03:40:05.101Z,8.20
2023-02-17T03:42:31.985Z,8.20
2023-02-17T03:44:58.503Z,8.30
2023-02-17T03:47:25.119Z,8.40
2023-02-17T03:49:52.195Z,8.40
2023-02-17T03:52:19.423Z,8.40
2023-02-17T03:54:46.029Z,8.40
2023-02-17T03:57:12.566Z,8.50
2023-02-17T03:59:39.094Z,8.40
2023-02-17T04:02:05.617Z,8.50
2023-02-17T04:04:32.181Z,8.50
2023-02-17T04:06:58.764Z,8.50
2023-02-17T04:09:25.276Z,8.50
2023-02-17T04:11:51.793Z,8.50
2023-02-17T04:14:18.345Z,8.50
2023-02-17T04:16:44.846Z,8.50
2023-02-17T04:19:11.398Z,8.50
2023-02-17T04:21:37.970Z,8.50
2023-02-17T04:24:04.699Z,8.40
2023-02-17T04:26:31.523Z,8.50
2023-02-17T04:28:58.141Z,8.50
2023-02-17T04:31:25.915Z,8.50
2023-02-17T04:33:52.541Z,8.50
2023-02-17T04:36:19.061Z,8.60
2023-02-17T04:38:45.670Z,8.60
2023-02-17T04:41:12.229Z,8.60
2023-02-17T04:43:38.827Z,8.70
2023-02-17T04:46:05.784Z,8.80
2023-02-17T04:48:32.618Z,8.80
2023-02-17T04:50:59.121Z,8.80
2023-02-17T04:53:25.651Z,8.80
2023-02-17T04:55:53.327Z,8.80
2023-02-17T04:58:20.638Z,8.80
2023-02-17T05:00:49.177Z,8.90
2023-02-17T05:03:16.500Z,8.90
2023-02-17T05:05:43.075Z,9.00
2023-02-17T05:08:09.715Z,9.00
2023-02-17T05:10:36.226Z,9.00
2023-02-17T05:13:02.762Z,9.10
2023-02-17T05:15:29.420Z,9.10
2023-02-17T05:17:55.926Z,9.10
2023-02-17T05:20:22.577Z,9.10
2023-02-17T05:22:49.104Z,9.10
2023-02-17T05:25:15.798Z,9.10
2023-02-17T05:27:42.363Z,9.10
2023-02-17T05:30:09.276Z,9.20
2023-02-17T05:32:35.907Z,9.20
2023-02-17T05:35:02.462Z,9.20
2023-02-17T05:37:29.025Z,9.30
2023-02-17T05:39:55.544Z,9.30
2023-02-17T05:42:22.120Z,9.30
2023-02-17T05:44:48.603Z,9.30
2023-02-17T05:47:15.182Z,9.30
2023-02-17T05:49:41.677Z,9.40
2023-02-17T05:52:08.237Z,9.40
2023-02-17T05:54:34.818Z,9.40
2023-02-17T05:57:01.345Z,9.40
2023-02-17T05:59:28.034Z,9.40
2023-02-17T06:01:54.554Z,9.40
2023-02-17T06:04:21.080Z,9.40
2023-02-17T06:06:47.590Z,9.40
2023-02-17T06:09:14.200Z,9.40
2023-02-17T06:11:40.749Z,9.50
2023-02-17T06:14:07.321Z,9.50
2023-02-17T06:16:34.129Z,9.50
2023-02-17T06:19:02.301Z,9.50
2023-02-17T06:21:29.405Z,9.50
2023-02-17T06:23:55.994Z,9.50
2023-02-17T06:26:22.647Z,9.60
2023-02-17T06:28:49.405Z,9.60
2023-02-17T06:31:16.027Z,9.60
2023-02-17T06:33:42.690Z,9.60
2023-02-17T06:36:09.573Z,9.60
2023-02-17T06:38:36.130Z,9.60
2023-02-17T06:41:02.742Z,9.60
2023-02-17T06:43:29.303Z,9.60
2023-02-17T06:45:55.912Z,9.60
2023-02-17T06:48:22.520Z,9.70
2023-02-17T06:50:49.786Z,9.70
2023-02-17T06:53:16.375Z,9.70
2023-02-17T06:55:44.697Z,9.70
2023-02-17T06:58:11.393Z,9.70
2023-02-17T07:00:38.076Z,9.70
2023-02-17T07:03:04.703Z,9.70
2023-02-17T07:05:31.378Z,9.70
2023-02-17T07:07:58.650Z,9.70
2023-02-17T07:10:25.289Z,9.70
2023-02-17T07:12:52.041Z,9.70
2023-02-17T07:15:18.754Z,9.70
2023-02-17T07:17:45.568Z,9.70
2023-02-17T07:20:12.585Z,9.70
2023-02-17T07:22:39.237Z,9.80
2023-02-17T07:25:06.568Z,9.80
2023-02-17T07:27:35.949Z,9.80
2023-02-17T07:30:02.923Z,9.80
2023-02-17T07:32:29.616Z,9.80
2023-02-17T07:34:56.223Z,9.80
2023-02-17T07:37:22.769Z,9.90
2023-02-17T07:39:49.532Z,9.90
2023-02-17T07:42:16.146Z,9.90
2023-02-17T07:44:42.704Z,9.90
2023-02-17T07:47:09.547Z,9.90
2023-02-17T07:49:36.127Z,9.90
2023-02-17T07:52:05.128Z,10.00
2023-02-17T07:54:31.801Z,10.00
2023-02-17T07:56:58.532Z,10.10
2023-02-17T07:59:25.094Z,10.10
2023-02-17T08:01:51.830Z,10.10
2023-02-17T08:04:18.435Z,10.20
2023-02-17T08:06:45.115Z,10.10
2023-02-17T08:09:30.937Z,10.20
2023-02-17T08:12:16.200Z,10.20
2023-02-17T08:14:42.720Z,10.30
2023-02-17T08:17:09.402Z,10.30
2023-02-17T08:19:47.445Z,10.30
2023-02-17T08:22:15.576Z,10.30
2023-02-17T08:24:42.090Z,10.40
2023-02-17T08:27:08.786Z,10.40
2023-02-17T08:29:35.329Z,10.40
2023-02-17T08:32:02.203Z,10.50
2023-02-17T08:34:33.469Z,10.60
2023-02-17T08:37:01.190Z,10.60
2023-02-17T08:39:28.327Z,10.60
2023-02-17T08:41:55.346Z,10.60
2023-02-17T08:44:22.387Z,10.60
2023-02-17T08:46:50.086Z,10.60
2023-02-17T08:49:19.201Z,10.60
2023-02-17T08:51:46.679Z,10.60
2023-02-17T08:54:14.025Z,10.60
2023-02-17T08:56:42.062Z,10.60
2023-02-17T08:59:10.832Z,10.60
2023-02-17T09:01:39.115Z,10.50
2023-02-17T09:04:08.444Z,10.60
2023-02-17T09:06:40.852Z,10.50
2023-02-17T09:09:10.770Z,10.50
2023-02-17T09:11:37.879Z,10.50
2023-02-17T09:14:05.403Z,10.40
2023-02-17T09:16:32.159Z,10.40
2023-02-17T09:18:58.752Z,10.30
2023-02-17T09:21:25.532Z,10.30
2023-02-17T09:23:53.705Z,10.30
2023-02-17T09:26:20.792Z,10.20
2023-02-17T09:28:47.625Z,10.20
2023-02-17T09:31:21.290Z,10.30
2023-02-17T09:33:49.738Z,10.30
2023-02-17T09:36:20.027Z,10.30
2023-02-17T09:38:47.070Z,10.30
2023-02-17T09:41:23.560Z,10.40
2023-02-17T09:43:51.690Z,10.40
2023-02-17T09:46:30.071Z,10.40
2023-02-17T09:49:05.763Z,10.50
2023-02-17T09:51:42.042Z,10.60
2023-02-17T09:54:21.336Z,10.60
2023-02-17T09:56:51.268Z,10.70
2023-02-17T09:59:35.970Z,10.80
2023-02-17T10:02:12.343Z,10.80
2023-02-17T10:04:43.831Z,10.90
2023-02-17T10:07:17.710Z,11.00
2023-02-17T10:10:15.636Z,11.00
2023-02-17T10:12:50.605Z,11.10
2023-02-17T10:15:21.952Z,11.10
2023-02-17T10:18:02.014Z,11.20
2023-02-17T10:20:33.632Z,11.20
2023-02-17T10:23:09.059Z,11.30
2023-02-17T10:26:05.788Z,11.30
2023-02-17T10:28:44.625Z,11.50
2023-02-17T10:31:33.570Z,11.70
2023-02-17T10:34:19.102Z,11.90
2023-02-17T10:36:55.501Z,12.00
2023-02-17T10:39:46.615Z,12.10
2023-02-17T10:42:27.430Z,12.10
2023-02-17T10:45:02.935Z,12.20
2023-02-17T10:47:31.157Z,12.30
2023-02-17T10:50:01.229Z,12.30
2023-02-17T10:52:39.139Z,12.30
2023-02-17T10:55:23.167Z,12.40
2023-02-17T10:57:57.393Z,12.40
2023-02-17T11:00:24.302Z,12.50
2023-02-17T11:02:53.848Z,12.40
2023-02-17T11:05:30.066Z,12.40
2023-02-17T11:08:06.668Z,12.20
2023-02-17T11:10:40.271Z,12.20
2023-02-17T11:13:34.997Z,12.10
2023-02-17T11:16:02.067Z,12.20
2023-02-17T11:18:34.889Z,12.30
2023-02-17T11:21:11.369Z,12.40
2023-02-17T11:23:55.146Z,12.50
2023-02-17T11:26:35.102Z,12.60
2023-02-17T11:29:09.378Z,12.60
2023-02-17T11:31:36.129Z,12.60
2023-02-17T11:34:14.248Z,12.60
2023-02-17T11:36:43.245Z,12.50
2023-02-17T11:39:19.648Z,12.50
2023-02-17T11:41:46.191Z,12.60
2023-02-17T11:44:26.432Z,12.70
2023-02-17T11:47:12.992Z,12.80
2023-02-17T11:50:02.735Z,13.00
2023-02-17T11:52:29.296Z,13.10
2023-02-17T11:55:03.953Z,13.30
2023-02-17T11:57:51.088Z,13.50
2023-02-17T12:00:28.002Z,13.70
2023-02-17T12:03:37.892Z,13.90
2023-02-17T12:06:23.209Z,14.20
2023-02-17T12:09:11.070Z,14.30
2023-02-17T12:11:51.539Z,14.60
2023-02-17T12:14:42.198Z,14.70
2023-02-17T12:17:37.751Z,14.60
2023-02-17T12:20:32.645Z,14.40
2023-02-17T12:23:11.722Z,14.40
2023-02-17T12:25:56.266Z,14.40
2023-02-17T12:28:50.903Z,14.50
2023-02-17T12:31:39.138Z,14.50
2023-02-17T12:34:20.007Z,14.40
2023-02-17T12:36:48.837Z,14.40
2023-02-17T12:39:28.712Z,14.40
2023-02-17T12:42:07.592Z,14.50
2023-02-17T12:44:50.154Z,14.40
2023-02-17T12:47:33.171Z,14.40
2023-02-17T12:50:19.149Z,14.30
2023-02-17T12:52:50.922Z,14.30
2023-02-17T12:55:20.815Z,14.20
2023-02-17T12:58:11.958Z,14.30
2023-02-17T13:00:48.005Z,14.30
2023-02-17T13:03:14.809Z,14.20
2023-02-17T13:05:59.687Z,14.10
2023-02-17T13:08:49.680Z,14.10
2023-02-17T13:11:31.412Z,14.00
2023-02-17T13:14:09.343Z,13.90
2023-02-17T13:16:46.200Z,13.80
2023-02-17T13:19:14.928Z,13.80
2023-02-17T13:21:56.065Z,13.80
2023-02-17T13:24:34.407Z,13.70
2023-02-17T13:27:20.245Z,13.70
2023-02-17T13:29:47.156Z,13.80
2023-02-17T13:32:13.860Z,13.80
2023-02-17T13:34:46.211Z,13.80
2023-02-17T13:37:32.413Z,13.90
2023-02-17T13:40:24.132Z,13.90
2023-02-17T13:42:55.518Z,13.80
2023-02-17T13:45:29.600Z,13.80
2023-02-17T13:48:10.542Z,13.60
2023-02-17T13:50:42.752Z,13.60
2023-02-17T13:53:32.025Z,13.50
2023-02-17T13:56:03.565Z,13.50
2023-02-17T13:58:32.916Z,13.50
2023-02-17T14:01:01.943Z,13.50
2023-02-17T14:03:41.970Z,13.60
2023-02-17T14:06:32.293Z,13.50
2023-02-17T14:08:59.369Z,13.70
2023-02-17T14:11:28.093Z,13.70
2023-02-17T14:13:57.266Z,13.80
2023-02-17T14:16:38.784Z,13.90
2023-02-17T14:19:14.610Z,13.90
2023-02-17T14:22:02.821Z,13.90
2023-02-17T14:24:35.647Z,13.90
2023-02-17T14:27:08.635Z,13.90
2023-02-17T14:29:41.014Z,14.00
2023-02-17T14:32:25.534Z,14.00
2023-02-17T14:34:52.135Z,14.00
2023-02-17T14:37:23.620Z,13.90
2023-02-17T14:39:50.563Z,13.90
2023-02-17T14:42:17.312Z,13.90
2023-02-17T14:44:44.600Z,13.90
2023-02-17T14:47:11.135Z,13.80
2023-02-17T14:49:37.729Z,13.80
2023-02-17T14:52:21.508Z,13.80
2023-02-17T14:54:49.010Z,13.70
2023-02-17T14:57:17.588Z,13.70
2023-02-17T14:59:44.678Z,13.70
2023-02-17T15:02:17.058Z,13.70
2023-02-17T15:04:43.701Z,13.70
2023-02-17T15:07:14.242Z,13.70
2023-02-17T15:09:43.582Z,13.70
2023-02-17T15:12:16.438Z,13.70
2023-02-17T15:14:43.448Z,13.70
2023-02-17T15:17:10.052Z,13.70
2023-02-17T15:19:36.750Z,13.70
2023-02-17T15:22:03.994Z,13.70
2023-02-17T15:24:33.608Z,13.70
2023-02-17T15:27:04.071Z,13.60
2023-02-17T15:29:30.952Z,13.60
2023-02-17T15:32:00.573Z,13.60
2023-02-17T15:34:31.756Z,13.60
2023-02-17T15:36:59.825Z,13.50
2023-02-17T15:39:26.829Z,13.60
2023-02-17T15:41:56.187Z,13.50
2023-02-17T15:44:26.008Z,13.50
2023-02-17T15:46:55.286Z,13.50
2023-02-17T15:49:22.361Z,13.50
2023-02-17T15:51:49.375Z,13.60
2023-02-17T15:54:19.112Z,13.50
2023-02-17T15:56:49.126Z,13.50
2023-02-17T15:59:24.379Z,13.40
2023-02-17T16:01:50.972Z,13.50
2023-02-17T16:04:18.056Z,13.40
2023-02-17T16:06:44.647Z,13.50
2023-02-17T16:09:12.021Z,13.50
2023-02-17T16:11:48.214Z,13.50
2023-02-17T16:14:31.533Z,13.50
2023-02-17T16:16:58.117Z,13.50
2023-02-17T16:19:24.757Z,13.50
2023-02-17T16:21:51.299Z,13.50
2023-02-17T16:24:17.819Z,13.40
2023-02-17T16:26:44.548Z,13.40
2023-02-17T16:29:17.676Z,13.40
2023-02-17T16:31:44.702Z,13.40
2023-02-17T16:34:32.289Z,13.30
2023-02-17T16:37:02.570Z,13.30
2023-02-17T16:39:29.517Z,13.30
2023-02-17T16:41:56.101Z,13.30
2023-02-17T16:44:23.517Z,13.30
2023-02-17T16:46:52.549Z,13.30
2023-02-17T16:49:28.209Z,13.30
2023-02-17T16:51:54.886Z,13.30
2023-02-17T16:54:21.458Z,13.20
2023-02-17T16:56:50.417Z,13.20
2023-02-17T16:59:19.067Z,13.20
2023-02-17T17:01:46.872Z,13.10
2023-02-17T17:04:15.224Z,13.10
2023-02-17T17:06:45.398Z,13.00
2023-02-17T17:09:16.552Z,13.00
2023-02-17T17:11:43.500Z,13.00
2023-02-17T17:14:10.166Z,13.00
2023-02-17T17:16:37.742Z,13.00
2023-02-17T17:19:04.440Z,12.90
2023-02-17T17:21:31.154Z,12.90
2023-02-17T17:23:57.914Z,13.00
2023-02-17T17:26:35.791Z,13.00
2023-02-17T17:29:03.498Z,13.00
2023-02-17T17:31:30.197Z,13.00
2023-02-17T17:33:56.890Z,13.10
2023-02-17T17:36:30.130Z,13.00
2023-02-17T17:38:58.332Z,13.00
2023-02-17T17:41:26.907Z,13.10
2023-02-17T17:43:55.370Z,13.10
2023-02-17T17:46:28.712Z,13.10
2023-02-17T17:48:58.860Z,13.10
2023-02-17T17:51:27.243Z,13.10
2023-02-17T17:53:54.189Z,13.10
2023-02-17T17:56:27.685Z,13.10
2023-02-17T17:58:54.914Z,13.10
2023-02-17T18:01:22.262Z,13.10
2023-02-17T18:03:49.585Z,13.10
2023-02-17T18:06:22.878Z,13.10
2023-02-17T18:08:50.778Z,13.10
2023-02-17T18:11:20.000Z,13.10
2023-02-17T18:13:47.782Z,13.10
2023-02-17T18:16:14.869Z,13.10
2023-02-17T18:18:41.985Z,13.00
2023-02-17T18:21:08.519Z,13.00
2023-02-17T18:23:35.103Z,13.00
2023-02-17T18:26:01.674Z,12.90
2023-02-17T18:28:28.216Z,12.80
2023-02-17T18:30:56.947Z,12.70
2023-02-17T18:33:23.739Z,12.60
2023-02-17T18:35:50.892Z,12.60
2023-02-17T18:38:18.198Z,12.60
2023-02-17T18:40:44.759Z,12.50
2023-02-17T18:43:11.327Z,12.50
2023-02-17T18:45:38.009Z,12.50
2023-02-17T18:48:04.670Z,12.50
2023-02-17T18:50:33.900Z,12.50
2023-02-17T18:53:00.415Z,12.50
2023-02-17T18:55:27.038Z,12.50
2023-02-17T18:57:54.087Z,12.60
2023-02-17T19:00:21.070Z,12.60
2023-02-17T19:02:48.435Z,12.60
2023-02-17T19:05:17.310Z,12.60
2023-02-17T19:07:43.945Z,12.50
2023-02-17T19:10:11.159Z,12.50
2023-02-17T19:12:37.907Z,12.50
2023-02-17T19:15:05.826Z,12.50
2023-02-17T19:17:32.444Z,12.50
2023-02-17T19:19:58.980Z,12.50
2023-02-17T19:22:25.531Z,12.50
2023-02-17T19:24:53.736Z,12.50
2023-02-17T19:27:20.654Z,12.50
2023-02-17T19:29:47.310Z,12.50
2023-02-17T19:32:13.839Z,12.50
2023-02-17T19:34:40.402Z,12.50
2023-02-17T19:37:07.012Z,12.50
2023-02-17T19:39:34.652Z,12.40
2023-02-17T19:42:02.970Z,12.40
2023-02-17T19:44:30.945Z,12.40
2023-02-17T19:46:57.684Z,12.30
2023-02-17T19:49:24.519Z,12.30
2023-02-17T19:51:51.390Z,12.20
2023-02-17T19:54:18.000Z,12.10
2023-02-17T19:56:44.624Z,12.10
2023-02-17T19:59:11.213Z,12.10
2023-02-17T20:01:37.756Z,12.10
2023-02-17T20:04:05.214Z,12.10
2023-02-17T20:06:49.961Z,12.10
2023-02-17T20:09:19.427Z,12.10
2023-02-17T20:11:47.856Z,12.10
2023-02-17T20:14:14.715Z,12.10
2023-02-17T20:16:41.321Z,12.00
2023-02-17T20:19:08.099Z,12.00
2023-02-17T20:21:38.088Z,12.00
2023-02-17T20:24:04.917Z,12.00
2023-02-17T20:26:34.632Z,12.00
2023-02-17T20:29:01.797Z,12.00
2023-02-17T20:31:28.824Z,12.00
2023-02-17T20:33:55.761Z,12.00
2023-02-17T20:36:22.608Z,12.00
2023-02-17T20:38:52.530Z,12.00
2023-02-17T20:41:22.122Z,11.90
2023-02-17T20:43:49.537Z,11.90
2023-02-17T20:46:22.016Z,11.90
2023-02-17T20:48:49.040Z,11.80
2023-02-17T20:51:15.542Z,11.80
2023-02-17T20:53:42.139Z,11.70
2023-02-17T20:56:16.770Z,11.70
2023-02-17T20:58:43.444Z,11.70
2023-02-17T21:01:10.623Z,11.70
2023-02-17T21:03:37.555Z,11.70
2023-02-17T21:06:06.624Z,11.70
2023-02-17T21:08:33.399Z,11.70
2023-02-17T21:10:59.980Z,11.70
2023-02-17T21:13:27.961Z,11.70
2023-02-17T21:15:55.634Z,11.70
2023-02-17T21:18:22.216Z,11.70
2023-02-17T21:20:48.771Z,11.70
2023-02-17T21:23:15.721Z,11.70
2023-02-17T21:25:45.418Z,11.70
2023-02-17T21:28:12.003Z,11.60
2023-02-17T21:30:38.619Z,11.60
2023-02-17T21:33:06.034Z,11.60
2023-02-17T21:35:32.674Z,11.60
2023-02-17T21:37:59.221Z,11.60
2023-02-17T21:40:25.785Z,11.50
2023-02-17T21:43:11.043Z,11.60
2023-02-17T21:45:38.842Z,11.60
2023-02-17T21:48:07.285Z,11.50
2023-02-17T21:50:34.045Z,11.50
2023-02-17T21:53:00.767Z,11.50
2023-02-17T21:55:27.364Z,11.50
2023-02-17T21:57:53.978Z,11.50
2023-02-17T22:00:20.694Z,11.50
2023-02-17T22:02:47.251Z,11.50
2023-02-17T22:05:13.822Z,11.50
2023-02-17T22:07:40.423Z,11.50
2023-02-17T22:10:07.494Z,11.50
2023-02-17T22:12:37.293Z,11.50
2023-02-17T22:15:05.656Z,11.50
2023-02-17T22:17:34.086Z,11.40
2023-02-17T22:20:00.601Z,11.40
2023-02-17T22:22:27.287Z,11.40
2023-02-17T22:24:53.964Z,11.40
2023-02-17T22:27:20.775Z,11.40
2023-02-17T22:29:47.361Z,11.40
2023-02-17T22:32:13.945Z,11.40
2023-02-17T22:34:40.674Z,11.40
2023-02-17T22:37:07.185Z,11.40
2023-02-17T22:39:33.713Z,11.40
2023-02-17T22:42:00.231Z,11.40
2023-02-17T22:44:26.770Z,11.40
2023-02-17T22:46:53.377Z,11.40
2023-02-17T22:49:19.872Z,11.40
2023-02-17T22:51:46.373Z,11.40
2023-02-17T22:54:12.940Z,11.40
2023-02-17T22:56:39.602Z,11.40
2023-02-17T22:59:07.305Z,11.40
2023-02-17T23:01:35.811Z,11.40
2023-02-17T23:04:03.217Z,11.40
2023-02-17T23:06:32.590Z,11.40
2023-02-17T23:09:00.917Z,11.40
2023-02-17T23:11:52.461Z,11.40
2023-02-17T23:14:25.362Z,11.40
2023-02-17T23:16:53.700Z,11.50
2023-02-17T23:19:22.730Z,11.50
2023-02-17T23:21:52.671Z,11.50
2023-02-17T23:24:21.073Z,11.50
2023-02-17T23:26:48.144Z,11.50
2023-02-17T23:29:15.369Z,11.50
2023-02-17T23:31:42.287Z,11.50
2023-02-17T23:34:11.198Z,11.60
2023-02-17T23:36:42.212Z,11.60
2023-02-17T23:39:09.491Z,11.60
2023-02-17T23:41:37.063Z,11.60
2023-02-17T23:44:06.387Z,11.50
2023-02-17T23:46:33.181Z,11.50
2023-02-17T23:48:59.840Z,11.60
2023-02-17T23:51:26.660Z,11.60
2023-02-17T23:53:53.218Z,11.60
2023-02-17T23:56:26.204Z,11.60
2023-02-17T23:58:53.373Z,11.60
